Time;durP1;ratioP1;P1;durP2;ratioP2;P2;SDS_P1;SDS_P2;PMS_P1;PMS_P2;Temp;Humidity;BMP_temperature;BMP_pressure;BME280_temperature;BME280_humidity;BME280_pressure;Samples;Min_cycle;Max_cycle;Signal;HPM_P1;HPM_P2
2022/05/08 05:05:37;;;;;;;6.15;5.75;;;12.40;99.90;;;;;;4976330;28;20253;-69
2022/05/08 05:08:05;;;;;;;6.22;5.78;;;12.70;99.90;;;;;;4977938;28;20256;-69
2022/05/08 05:10:32;;;;;;;7.13;6.63;;;13.00;99.90;;;;;;4977461;28;20201;-68
2022/05/08 05:12:59;;;;;;;8.63;7.82;;;13.50;99.90;;;;;;4977708;28;20210;-68
2022/05/08 05:15:27;;;;;;;7.70;7.10;;;13.90;99.90;;;;;;4977329;28;20597;-68
2022/05/08 05:17:54;;;;;;;7.78;7.15;;;14.50;99.90;;;;;;4978230;28;20235;-69
2022/05/08 05:20:21;;;;;;;6.20;5.70;;;15.00;99.90;;;;;;4977727;28;20318;-70
2022/05/08 05:22:49;;;;;;;6.32;5.85;;;15.30;99.90;;;;;;4977575;28;20249;-70
2022/05/08 05:25:16;;;;;;;5.35;5.05;;;15.60;99.90;;;;;;4977493;28;20230;-70
2022/05/08 05:27:43;;;;;;;5.28;4.97;;;15.80;99.90;;;;;;4977972;28;20204;-70
2022/05/08 05:30:11;;;;;;;5.18;4.78;;;15.90;99.90;;;;;;4977648;28;20227;-70
2022/05/08 05:32:39;;;;;;;4.75;4.32;;;16.00;99.90;;;;;;4977537;28;20239;-70
2022/05/08 05:35:06;;;;;;;5.22;4.90;;;16.00;99.90;;;;;;4977372;28;20598;-70
2022/05/08 05:37:34;;;;;;;5.05;4.75;;;16.20;99.90;;;;;;4977821;28;20290;-70
2022/05/08 05:40:02;;;;;;;4.63;4.32;;;16.60;99.90;;;;;;4978263;28;20734;-70
2022/05/08 05:42:29;;;;;;;4.70;4.40;;;16.90;99.90;;;;;;4977511;28;20203;-70
2022/05/08 05:44:56;;;;;;;4.53;4.32;;;17.30;99.90;;;;;;4977262;28;20227;-70
2022/05/08 05:50:08;;;;;;;4.25;4.05;;;18.20;99.90;;;;;;4977282;28;20182;-70
2022/05/08 05:52:36;;;;;;;4.88;4.43;;;18.70;99.90;;;;;;4976909;28;20212;-70
2022/05/08 05:55:06;;;;;;;4.05;3.75;;;19.40;99.90;;;;;;4976949;28;20725;-70
2022/05/08 05:57:33;;;;;;;4.35;4.00;;;20.20;91.70;;;;;;4977196;28;20226;-70
2022/05/08 06:00:00;;;;;;;3.78;3.58;;;21.20;79.90;;;;;;4977097;28;20329;-70
2022/05/08 06:02:27;;;;;;;4.13;3.72;;;22.20;66.60;;;;;;4976746;28;20778;-70
2022/05/08 06:04:54;;;;;;;3.90;3.70;;;23.30;55.80;;;;;;4976583;28;20713;-70
2022/05/08 06:07:21;;;;;;;3.58;3.47;;;24.00;46.40;;;;;;4975920;28;20639;-71
2022/05/08 06:09:48;;;;;;;3.90;3.70;;;24.50;44.60;;;;;;4977108;28;20291;-70
2022/05/08 06:12:16;;;;;;;3.40;3.08;;;25.20;41.10;;;;;;4976908;28;20294;-68
2022/05/08 06:14:46;;;;;;;3.40;3.20;;;25.60;39.00;;;;;;4976670;28;20629;-70
2022/05/08 06:17:12;;;;;;;3.78;3.45;;;26.10;38.60;;;;;;4976751;28;20202;-70
2022/05/08 06:19:39;;;;;;;3.65;3.42;;;27.10;36.00;;;;;;4976873;28;20309;-70
2022/05/08 06:22:06;;;;;;;3.42;3.22;;;28.30;33.00;;;;;;4976590;28;20219;-70
2022/05/08 06:24:35;;;;;;;3.92;3.65;;;29.40;31.30;;;;;;4976428;28;20226;-71
2022/05/08 06:27:02;;;;;;;3.10;2.90;;;30.30;33.40;;;;;;4976600;28;20310;-71
2022/05/08 06:29:30;;;;;;;2.65;2.55;;;30.70;28.40;;;;;;4976260;28;20199;-71
2022/05/08 06:31:57;;;;;;;2.30;2.20;;;31.50;26.80;;;;;;4976474;28;20207;-71
2022/05/08 06:34:24;;;;;;;2.55;2.45;;;31.90;24.50;;;;;;4976324;28;20309;-70
2022/05/08 06:36:51;;;;;;;2.15;2.05;;;32.20;24.10;;;;;;4976184;28;20289;-70
2022/05/08 06:39:18;;;;;;;2.22;2.20;;;33.00;24.90;;;;;;4976209;28;20314;-70
2022/05/08 06:41:45;;;;;;;2.28;2.17;;;33.80;25.10;;;;;;4975968;28;20238;-70
2022/05/08 06:44:13;;;;;;;1.65;1.65;;;34.70;21.90;;;;;;4976077;28;20230;-71
2022/05/08 06:46:41;;;;;;;2.08;1.98;;;35.00;21.20;;;;;;4976084;28;20199;-71
2022/05/08 06:49:08;;;;;;;1.80;1.80;;;35.10;22.60;;;;;;4975832;28;20289;-71
2022/05/08 06:51:36;;;;;;;1.60;1.60;;;35.60;22.30;;;;;;4976087;28;20250;-71
2022/05/08 06:54:03;;;;;;;1.83;1.73;;;35.90;20.50;;;;;;4976002;28;20230;-70
2022/05/08 06:56:31;;;;;;;1.88;1.80;;;36.40;20.10;;;;;;4975906;28;20210;-70
2022/05/08 07:01:43;;;;;;;1.40;1.40;;;37.30;18.40;;;;;;4976080;28;20204;-71
2022/05/08 07:04:11;;;;;;;1.23;1.23;;;37.60;21.50;;;;;;4975951;28;20222;-71
2022/05/08 07:06:39;;;;;;;1.45;1.45;;;37.60;21.60;;;;;;4976162;28;20210;-71
2022/05/08 07:09:07;;;;;;;1.50;1.50;;;36.80;20.90;;;;;;4977252;28;20285;-70
2022/05/08 07:11:35;;;;;;;1.33;1.33;;;36.30;20.60;;;;;;4975625;28;20354;-71
2022/05/08 07:14:02;;;;;;;1.70;1.60;;;36.10;23.20;;;;;;4975550;28;20322;-71
2022/05/08 07:16:29;;;;;;;1.85;1.75;;;36.00;20.00;;;;;;4975604;28;20698;-72
2022/05/08 07:18:57;;;;;;;1.75;1.75;;;35.50;20.90;;;;;;4975436;28;20241;-71
2022/05/08 07:21:24;;;;;;;2.67;1.60;;;34.30;23.20;;;;;;4975528;28;20225;-69
2022/05/08 07:23:51;;;;;;;2.10;2.08;;;33.60;22.50;;;;;;4975472;28;20225;-70
2022/05/08 07:26:18;;;;;;;1.98;1.88;;;33.10;23.40;;;;;;4975482;28;20229;-72
2022/05/08 07:28:45;;;;;;;1.70;1.70;;;32.20;25.20;;;;;;4975431;28;20255;-71
2022/05/08 07:31:12;;;;;;;2.08;1.98;;;31.30;25.00;;;;;;4975414;28;20205;-72
2022/05/08 07:33:39;;;;;;;2.40;2.08;;;29.90;26.30;;;;;;4975384;28;20232;-71
2022/05/08 07:36:13;;;;;;;3.10;2.90;;;29.00;29.00;;;;;;4975394;28;20290;-72
2022/05/08 07:38:41;;;;;;;2.22;2.13;;;28.10;28.30;;;;;;4976244;28;20187;-71
2022/05/08 07:41:09;;;;;;;2.38;2.28;;;27.00;30.00;;;;;;4976293;28;20227;-70
2022/05/08 07:43:36;;;;;;;3.65;2.20;;;26.10;31.70;;;;;;4976223;28;20245;-69
2022/05/08 07:46:03;;;;;;;2.28;2.20;;;25.50;32.70;;;;;;4976118;28;20289;-70
2022/05/08 07:48:30;;;;;;;2.30;2.20;;;24.90;33.90;;;;;;4975139;28;20278;-69
2022/05/08 07:50:59;;;;;;;2.38;2.28;;;24.30;35.00;;;;;;4974725;28;20733;-70
2022/05/08 07:53:28;;;;;;;2.40;2.30;;;23.80;35.90;;;;;;4975095;28;20225;-70
2022/05/08 07:55:55;;;;;;;3.10;2.90;;;23.50;37.20;;;;;;4974948;28;20233;-69
2022/05/08 07:58:22;;;;;;;2.78;2.67;;;23.00;37.10;;;;;;4974674;28;20794;-70
2022/05/08 08:00:53;;;;;;;3.13;2.92;;;22.40;38.50;;;;;;4975380;28;20233;-70
2022/05/08 08:03:20;;;;;;;3.42;3.20;;;21.80;40.00;;;;;;4974816;28;20214;-71
2022/05/08 08:05:48;;;;;;;4.25;3.88;;;21.20;42.30;;;;;;4974458;28;20297;-70
2022/05/08 08:08:16;;;;;;;4.05;3.75;;;20.70;44.80;;;;;;4974742;28;20233;-70
2022/05/08 08:10:45;;;;;;;3.63;3.33;;;20.30;47.40;;;;;;4974671;28;20198;-70
2022/05/08 08:13:12;;;;;;;4.18;3.95;;;20.00;50.90;;;;;;4974186;28;20676;-70
2022/05/08 08:15:39;;;;;;;3.22;3.13;;;19.70;54.10;;;;;;4974722;28;20228;-69
2022/05/08 08:18:07;;;;;;;2.92;2.83;;;19.60;57.90;;;;;;4974325;28;20202;-69
2022/05/08 08:20:34;;;;;;;4.00;3.80;;;19.50;60.10;;;;;;4974611;28;20219;-70
2022/05/08 08:23:01;;;;;;;3.80;3.60;;;19.40;61.10;;;;;;4974607;28;20226;-70
2022/05/08 17:09:41;;;;;;;2.63;2.53;;;17.90;88.60;;;;;;5142294;23;20229;-66
2022/05/08 17:12:09;;;;;;;2.63;2.53;;;17.90;90.30;;;;;;5037654;28;20284;-68
2022/05/08 17:14:36;;;;;;;2.20;2.10;;;17.80;91.10;;;;;;5037542;28;20574;-68
2022/05/08 17:17:03;;;;;;;2.55;2.45;;;17.80;86.30;;;;;;5037241;28;20668;-66
2022/05/08 17:19:30;;;;;;;2.20;2.20;;;17.70;87.80;;;;;;5037476;28;20229;-67
2022/05/08 17:21:56;;;;;;;2.13;2.03;;;17.70;88.20;;;;;;5037399;28;20291;-66
2022/05/08 17:24:24;;;;;;;2.63;2.53;;;17.70;90.30;;;;;;5037493;28;20567;-66
2022/05/08 17:29:36;;;;;;;2.30;2.20;;;17.60;87.40;;;;;;5037105;28;20275;-66
2022/05/08 17:32:05;;;;;;;2.33;2.22;;;17.60;86.90;;;;;;5037149;28;20197;-67
2022/05/08 17:34:32;;;;;;;2.00;2.00;;;17.50;86.10;;;;;;5036708;28;20207;-66
2022/05/08 17:37:00;;;;;;;2.17;1.83;;;17.40;86.50;;;;;;5037456;28;20296;-67
2022/05/08 17:39:27;;;;;;;2.00;2.00;;;17.40;84.70;;;;;;5037510;28;20623;-65
2022/05/08 17:41:56;;;;;;;1.88;1.88;;;17.40;85.50;;;;;;5037631;28;20225;-66
2022/05/08 17:44:23;;;;;;;1.98;1.98;;;17.30;84.80;;;;;;5037938;28;20217;-66
2022/05/08 17:46:50;;;;;;;2.28;2.10;;;17.20;88.90;;;;;;5037514;28;20230;-66
2022/05/08 17:49:19;;;;;;;2.22;2.13;;;17.20;89.50;;;;;;5038396;28;20316;-67
2022/05/08 17:51:46;;;;;;;1.83;1.73;;;17.00;90.30;;;;;;5040068;28;20204;-65
2022/05/08 17:54:13;;;;;;;2.13;2.13;;;17.00;92.30;;;;;;5040111;28;20299;-66
2022/05/08 17:56:41;;;;;;;2.22;2.13;;;16.90;93.10;;;;;;5038995;28;20259;-66
2022/05/08 17:59:09;;;;;;;2.40;2.30;;;16.90;93.90;;;;;;5038663;28;20221;-67
2022/05/08 18:01:37;;;;;;;2.53;2.33;;;16.90;94.90;;;;;;5035688;28;20252;-67
2022/05/08 18:06:49;;;;;;;2.42;2.33;;;16.80;97.20;;;;;;5035728;28;20315;-67
2022/05/08 18:09:15;;;;;;;2.60;2.50;;;16.80;97.50;;;;;;5035570;28;20225;-67
2022/05/08 18:11:43;;;;;;;2.75;2.60;;;16.80;98.50;;;;;;5035930;28;20265;-67
2022/05/08 18:14:12;;;;;;;2.70;2.60;;;16.70;99.10;;;;;;5035815;28;20288;-67
2022/05/08 18:16:39;;;;;;;2.75;2.65;;;16.70;99.50;;;;;;5035678;28;20251;-66
2022/05/08 18:19:08;;;;;;;2.67;2.53;;;16.60;99.90;;;;;;5035156;28;20221;-66
2022/05/08 18:21:35;;;;;;;2.75;2.65;;;16.50;99.90;;;;;;5035605;28;20217;-67
2022/05/08 18:24:02;;;;;;;2.78;2.67;;;16.40;99.90;;;;;;5035269;28;20660;-67
2022/05/08 18:26:29;;;;;;;3.40;3.30;;;16.30;99.90;;;;;;5035534;28;20295;-67
2022/05/08 18:28:59;;;;;;;3.08;2.97;;;16.30;99.90;;;;;;5035483;28;20320;-67
2022/05/08 18:31:27;;;;;;;2.92;2.83;;;16.20;99.90;;;;;;5035193;28;20182;-66
2022/05/08 18:33:54;;;;;;;2.92;2.83;;;16.20;99.90;;;;;;5035678;28;20211;-67
2022/05/08 18:36:21;;;;;;;3.13;3.03;;;16.20;99.90;;;;;;5035507;28;20289;-67
2022/05/08 18:38:53;;;;;;;3.35;3.22;;;16.10;99.90;;;;;;5035361;28;20232;-66
2022/05/08 18:41:20;;;;;;;2.90;2.80;;;16.10;99.90;;;;;;5035394;28;20237;-67
2022/05/08 18:43:47;;;;;;;3.10;3.00;;;16.10;99.90;;;;;;5035088;28;20209;-67
2022/05/08 18:46:14;;;;;;;3.03;2.80;;;16.10;99.90;;;;;;5035168;28;20288;-67
2022/05/08 18:48:43;;;;;;;2.83;2.72;;;16.00;99.90;;;;;;5035414;28;20260;-67
2022/05/08 18:51:10;;;;;;;3.10;3.00;;;16.00;99.90;;;;;;5035515;28;20193;-68
2022/05/08 18:53:37;;;;;;;3.20;3.00;;;15.90;99.90;;;;;;5035125;28;20665;-68
2022/05/08 18:56:05;;;;;;;3.25;3.10;;;15.80;99.90;;;;;;5035118;28;20206;-67
2022/05/08 18:58:32;;;;;;;3.35;3.15;;;15.80;99.90;;;;;;5035242;28;20688;-67
2022/05/08 19:00:58;;;;;;;3.38;3.20;;;15.70;99.90;;;;;;5035166;28;20691;-68
2022/05/08 19:03:25;;;;;;;2.88;2.78;;;15.70;99.90;;;;;;5035477;28;20296;-67
2022/05/08 19:05:53;;;;;;;3.03;2.90;;;15.60;99.90;;;;;;5035007;28;20224;-68
2022/05/08 19:08:20;;;;;;;2.78;2.67;;;15.60;99.90;;;;;;5034523;28;20223;-68
2022/05/08 19:10:47;;;;;;;3.08;2.97;;;15.70;99.90;;;;;;5034516;28;20676;-68
2022/05/08 19:13:14;;;;;;;3.03;2.92;;;15.70;99.90;;;;;;5034582;28;20572;-68
2022/05/08 19:15:41;;;;;;;3.08;2.90;;;15.70;99.90;;;;;;5034902;28;20208;-68
2022/05/08 19:18:08;;;;;;;3.20;3.10;;;15.70;99.90;;;;;;5034609;28;20256;-67
2022/05/08 19:20:35;;;;;;;3.00;2.90;;;15.70;99.90;;;;;;5034569;28;20292;-67
2022/05/08 19:23:03;;;;;;;3.58;3.38;;;15.70;99.90;;;;;;5034468;28;20730;-66
2022/05/08 19:25:30;;;;;;;3.25;3.15;;;15.70;99.90;;;;;;5034507;28;20622;-67
2022/05/08 19:27:58;;;;;;;3.25;3.08;;;15.60;99.90;;;;;;5034562;28;20312;-68
2022/05/08 19:30:25;;;;;;;3.75;3.55;;;15.60;99.90;;;;;;5034411;28;20205;-68
2022/05/08 19:38:21;;;;;;;3.70;3.50;;;15.60;99.90;;;;;;5034540;28;20223;-68
2022/05/08 19:40:48;;;;;;;3.20;3.10;;;15.60;99.90;;;;;;5034420;28;20221;-66
2022/05/08 19:43:15;;;;;;;3.80;3.60;;;15.50;99.90;;;;;;5034358;28;20201;-67
2022/05/08 19:45:42;;;;;;;3.92;3.72;;;15.50;99.90;;;;;;5034248;28;20274;-69
2022/05/08 19:48:09;;;;;;;3.95;3.75;;;15.40;99.90;;;;;;5034249;28;20311;-70
2022/05/08 19:50:36;;;;;;;4.65;4.25;;;15.40;99.90;;;;;;5034169;28;20201;-68
2022/05/08 19:53:03;;;;;;;4.38;4.18;;;15.30;99.90;;;;;;5034081;28;20213;-68
2022/05/08 19:55:31;;;;;;;4.18;3.97;;;15.20;99.90;;;;;;5033909;28;20212;-68
2022/05/08 19:57:58;;;;;;;3.70;3.60;;;15.20;99.90;;;;;;5052553;22;20225;-70
2022/05/08 20:00:27;;;;;;;4.15;3.95;;;15.20;99.90;;;;;;5015903;28;20193;-71
2022/05/08 20:02:54;;;;;;;3.88;3.67;;;15.20;99.90;;;;;;5015523;28;20225;-72
2022/05/08 20:05:21;;;;;;;4.03;3.83;;;15.20;99.90;;;;;;5014331;28;20209;-69
2022/05/08 20:07:48;;;;;;;3.63;3.47;;;15.20;99.90;;;;;;5014245;28;20218;-69
2022/05/08 20:10:16;;;;;;;3.83;3.72;;;15.20;99.90;;;;;;5014227;28;20204;-69
2022/05/08 20:12:45;;;;;;;3.13;3.03;;;15.20;99.90;;;;;;5014183;28;20194;-71
2022/05/08 20:15:12;;;;;;;4.00;3.80;;;15.20;99.90;;;;;;5014128;28;20288;-70
2022/05/08 20:17:39;;;;;;;3.05;2.95;;;15.20;99.90;;;;;;5013910;28;20212;-70
2022/05/08 20:22:48;;;;;;;3.10;3.00;;;15.10;99.90;;;;;;5013646;28;20604;-70
2022/05/08 20:25:15;;;;;;;3.33;3.22;;;15.10;99.90;;;;;;5012866;28;20550;-70
2022/05/08 20:27:43;;;;;;;3.60;3.40;;;15.10;99.90;;;;;;5013874;28;20729;-70
2022/05/08 20:30:11;;;;;;;3.15;3.05;;;15.00;99.90;;;;;;5013862;28;20252;-72
2022/05/08 20:32:38;;;;;;;3.40;3.30;;;15.00;99.90;;;;;;5013861;28;20198;-71
2022/05/08 20:35:06;;;;;;;3.08;2.97;;;15.00;99.90;;;;;;5013862;28;20201;-71
2022/05/08 20:37:32;;;;;;;3.70;3.50;;;15.00;99.90;;;;;;5013965;28;20209;-71
2022/05/08 20:39:59;;;;;;;3.38;3.28;;;14.90;99.90;;;;;;5013800;28;20208;-71
2022/05/08 20:42:27;;;;;;;3.33;3.22;;;14.90;99.90;;;;;;5013171;28;20218;-72
2022/05/08 20:44:55;;;;;;;3.00;2.90;;;14.90;99.90;;;;;;5013652;28;20553;-71
2022/05/08 20:47:22;;;;;;;3.38;3.28;;;14.90;99.90;;;;;;5013800;28;20225;-70
2022/05/08 20:49:50;;;;;;;3.17;2.97;;;14.90;99.90;;;;;;5013811;28;20253;-71
2022/05/08 20:52:17;;;;;;;3.38;3.20;;;14.80;99.90;;;;;;5013905;28;20256;-71
2022/05/08 20:54:44;;;;;;;3.28;3.17;;;14.80;99.90;;;;;;5013720;28;20198;-72
2022/05/08 20:57:11;;;;;;;2.92;2.83;;;14.80;99.90;;;;;;5013754;28;20205;-71
2022/05/08 20:59:38;;;;;;;3.17;3.08;;;14.80;99.90;;;;;;5013653;28;20272;-71
2022/05/08 21:02:06;;;;;;;3.15;3.05;;;14.70;99.90;;;;;;5013614;28;20221;-71
2022/05/08 21:04:33;;;;;;;3.25;3.15;;;14.70;99.90;;;;;;5013545;28;20205;-71
2022/05/08 21:09:44;;;;;;;3.03;2.92;;;14.60;99.90;;;;;;5012898;28;20291;-70
2022/05/08 21:12:11;;;;;;;3.15;3.05;;;14.60;99.90;;;;;;5013124;28;20276;-70
2022/05/08 21:14:38;;;;;;;3.38;3.20;;;14.60;99.90;;;;;;5012887;28;20232;-71
2022/05/08 21:17:07;;;;;;;3.55;3.35;;;14.60;99.90;;;;;;5012430;28;20736;-70
2022/05/08 21:19:33;;;;;;;3.80;3.60;;;14.60;99.90;;;;;;5012960;28;20222;-70
2022/05/08 21:22:00;;;;;;;3.80;3.60;;;14.60;99.90;;;;;;5012903;28;20250;-71
2022/05/08 21:24:27;;;;;;;3.45;3.30;;;14.50;99.90;;;;;;5012624;28;20558;-71
2022/05/08 21:26:54;;;;;;;3.50;3.30;;;14.50;99.90;;;;;;5012731;28;20736;-71
2022/05/08 21:29:23;;;;;;;3.85;3.65;;;14.50;99.90;;;;;;5012851;28;20647;-70
2022/05/08 21:31:50;;;;;;;3.28;3.17;;;14.50;99.90;;;;;;5014338;28;20194;-71
2022/05/08 21:34:19;;;;;;;3.70;3.60;;;14.50;99.90;;;;;;5014185;28;20638;-71
2022/05/08 21:36:45;;;;;;;3.70;3.50;;;14.50;99.90;;;;;;5013905;28;20198;-71
2022/05/08 21:39:12;;;;;;;3.38;3.28;;;14.50;99.90;;;;;;5016312;28;20305;-71
2022/05/08 21:41:39;;;;;;;3.13;3.00;;;14.50;99.90;;;;;;5016258;28;20225;-71
